createdAt,value
2023-03-04T00:00:23.372Z,87
2023-03-04T00:03:48.549Z,87
2023-03-04T00:07:13.742Z,86
2023-03-04T00:10:38.935Z,87
2023-03-04T00:14:04.135Z,87
2023-03-04T00:17:29.272Z,88
2023-03-04T00:20:54.429Z,88
2023-03-04T00:24:19.629Z,88
2023-03-04T00:27:44.818Z,88
2023-03-04T00:31:10.972Z,88
2023-03-04T00:34:36.128Z,88
2023-03-04T00:38:01.297Z,88
2023-03-04T00:41:26.474Z,89
2023-03-04T00:44:51.625Z,88
2023-03-04T00:48:16.839Z,88
2023-03-04T00:51:41.987Z,88
2023-03-04T00:55:07.150Z,88
2023-03-04T00:58:32.343Z,89
2023-03-04T01:01:57.500Z,88
2023-03-04T01:05:22.700Z,89
2023-03-04T01:08:47.829Z,89
2023-03-04T01:12:12.984Z,88
2023-03-04T01:15:38.179Z,88
2023-03-04T01:19:03.401Z,89
2023-03-04T01:22:28.590Z,89
2023-03-04T01:25:53.723Z,89
2023-03-04T01:29:18.901Z,89
2023-03-04T01:32:44.084Z,89
2023-03-04T01:36:09.250Z,88
2023-03-04T01:39:34.463Z,88
2023-03-04T01:42:59.622Z,89
2023-03-04T01:46:24.810Z,89
2023-03-04T01:49:49.937Z,89
2023-03-04T01:53:15.120Z,89
2023-03-04T01:56:40.309Z,89
2023-03-04T02:00:05.445Z,88
2023-03-04T02:03:30.642Z,88
2023-03-04T02:06:55.801Z,88
2023-03-04T02:10:20.962Z,88
2023-03-04T02:13:46.180Z,89
2023-03-04T02:17:11.324Z,89
2023-03-04T02:20:36.505Z,88
2023-03-04T02:24:01.691Z,87
2023-03-04T02:27:26.827Z,87
2023-03-04T02:30:52.072Z,87
2023-03-04T02:34:17.258Z,88
2023-03-04T02:37:42.429Z,87
2023-03-04T02:41:07.603Z,87
2023-03-04T02:44:32.777Z,87
2023-03-04T02:47:57.948Z,87
2023-03-04T02:51:23.109Z,87
2023-03-04T02:54:48.351Z,87
2023-03-04T02:58:13.493Z,87
2023-03-04T03:01:38.662Z,87
2023-03-04T03:05:03.808Z,87
2023-03-04T03:08:28.950Z,87
2023-03-04T03:11:54.128Z,87
2023-03-04T03:15:19.288Z,86
2023-03-04T03:18:44.467Z,87
2023-03-04T03:22:09.630Z,87
2023-03-04T03:25:34.758Z,87
2023-03-04T03:28:59.961Z,87
2023-03-04T03:32:25.180Z,86
2023-03-04T03:35:50.352Z,86
2023-03-04T03:39:15.492Z,87
2023-03-04T03:42:40.666Z,87
2023-03-04T03:46:05.943Z,87
2023-03-04T03:49:31.005Z,87
2023-03-04T03:52:56.168Z,86
2023-03-04T03:56:21.364Z,86
2023-03-04T03:59:46.533Z,86
2023-03-04T04:03:11.676Z,86
2023-03-04T04:06:36.817Z,86
2023-03-04T04:10:01.995Z,86
2023-03-04T04:13:27.174Z,86
2023-03-04T04:16:52.396Z,86
2023-03-04T04:20:17.517Z,87
2023-03-04T04:23:42.713Z,86
2023-03-04T04:27:07.930Z,86
2023-03-04T04:30:33.233Z,86
2023-03-04T04:33:58.260Z,86
2023-03-04T04:37:23.429Z,86
2023-03-04T04:40:48.611Z,85
2023-03-04T04:44:13.788Z,85
2023-03-04T04:47:38.975Z,85
2023-03-04T04:51:04.111Z,85
2023-03-04T04:54:29.290Z,85
2023-03-04T04:57:54.497Z,85
2023-03-04T05:01:19.750Z,84
2023-03-04T05:04:44.905Z,85
2023-03-04T05:08:10.028Z,85
2023-03-04T05:11:35.202Z,86
2023-03-04T05:15:00.387Z,86
2023-03-04T05:18:25.553Z,86
2023-03-04T05:21:50.757Z,86
2023-03-04T05:25:15.899Z,86
2023-03-04T05:28:41.066Z,86
2023-03-04T05:32:06.284Z,85
2023-03-04T05:35:31.447Z,85
2023-03-04T05:38:56.595Z,85
2023-03-04T05:42:21.750Z,86
2023-03-04T05:45:46.912Z,85
2023-03-04T05:49:12.083Z,85
2023-03-04T05:52:37.247Z,85
2023-03-04T05:56:02.442Z,85
2023-03-04T05:59:27.615Z,85
2023-03-04T06:02:52.815Z,85
2023-03-04T06:06:17.939Z,85
2023-03-04T06:09:43.126Z,85
2023-03-04T06:13:08.323Z,85
2023-03-04T06:16:33.852Z,85
2023-03-04T06:19:59.034Z,85
2023-03-04T06:23:24.201Z,85
2023-03-04T06:26:49.394Z,85
2023-03-04T06:30:14.581Z,85
2023-03-04T06:33:39.762Z,85
2023-03-04T06:37:04.953Z,85
2023-03-04T06:40:30.195Z,85
2023-03-04T06:43:55.346Z,84
2023-03-04T06:47:20.562Z,84
2023-03-04T06:50:45.757Z,83
2023-03-04T06:54:10.971Z,84
2023-03-04T06:57:36.141Z,84
2023-03-04T07:01:05.671Z,84
2023-03-04T07:04:30.773Z,85
2023-03-04T07:07:55.930Z,85
2023-03-04T07:11:21.076Z,85
2023-03-04T07:14:46.232Z,84
2023-03-04T07:18:11.428Z,85
2023-03-04T07:21:36.683Z,85
2023-03-04T07:25:01.841Z,85
2023-03-04T07:28:26.968Z,84
2023-03-04T07:31:53.650Z,84
2023-03-04T07:35:17.355Z,85
2023-03-04T07:38:42.546Z,84
2023-03-04T07:42:07.687Z,84
2023-03-04T07:45:32.929Z,85
2023-03-04T07:48:58.011Z,84
2023-03-04T07:52:23.159Z,84
2023-03-04T07:55:48.393Z,84
2023-03-04T07:59:13.585Z,84
2023-03-04T08:02:38.765Z,85
2023-03-04T08:06:04.006Z,85
2023-03-04T08:09:29.190Z,85
2023-03-04T08:12:54.372Z,84
2023-03-04T08:16:19.656Z,84
2023-03-04T08:19:44.823Z,85
2023-03-04T08:23:09.953Z,84
2023-03-04T08:26:35.110Z,84
2023-03-04T08:30:00.328Z,84
2023-03-04T08:33:25.437Z,84
2023-03-04T08:36:50.765Z,84
2023-03-04T08:40:15.930Z,84
2023-03-04T08:43:41.082Z,84
2023-03-04T08:47:06.304Z,84
2023-03-04T08:50:31.427Z,84
2023-03-04T08:53:56.622Z,84
2023-03-04T08:57:21.860Z,84
2023-03-04T09:00:47.024Z,84
2023-03-04T09:04:12.178Z,84
2023-03-04T09:07:37.308Z,84
2023-03-04T09:11:02.584Z,84
2023-03-04T09:14:27.754Z,83
2023-03-04T09:17:53.012Z,84
2023-03-04T09:21:18.293Z,84
2023-03-04T09:24:43.449Z,85
2023-03-04T09:28:08.618Z,85
2023-03-04T09:31:33.905Z,83
2023-03-04T09:34:59.038Z,83
2023-03-04T09:38:24.287Z,83
2023-03-04T09:41:49.452Z,83
2023-03-04T09:45:14.646Z,83
2023-03-04T09:48:39.820Z,82
2023-03-04T09:52:04.971Z,82
2023-03-04T09:55:30.219Z,83
2023-03-04T09:58:55.420Z,83
2023-03-04T10:02:20.626Z,83
2023-03-04T10:05:45.802Z,83
2023-03-04T10:09:11.041Z,83
2023-03-04T10:12:36.261Z,83
2023-03-04T10:16:01.527Z,83
2023-03-04T10:19:26.630Z,83
2023-03-04T10:22:51.828Z,82
2023-03-04T10:26:16.980Z,82
2023-03-04T10:29:42.169Z,82
2023-03-04T10:33:07.307Z,81
2023-03-04T10:36:32.477Z,82
2023-03-04T10:39:57.702Z,82
2023-03-04T10:43:22.878Z,81
2023-03-04T10:46:48.116Z,81
2023-03-04T10:50:13.254Z,81
2023-03-04T10:53:38.427Z,80
2023-03-04T10:57:03.609Z,80
2023-03-04T11:00:28.757Z,80
2023-03-04T11:03:53.986Z,80
2023-03-04T11:07:19.189Z,81
2023-03-04T11:10:44.408Z,81
2023-03-04T11:14:09.628Z,81
2023-03-04T11:17:34.804Z,81
2023-03-04T11:21:00.018Z,81
2023-03-04T11:24:28.559Z,80
2023-03-04T11:27:50.393Z,81
2023-03-04T11:31:15.585Z,81
2023-03-04T11:34:40.712Z,81
2023-03-04T11:38:05.904Z,81
2023-03-04T11:41:31.027Z,80
2023-03-04T11:44:56.207Z,81
2023-03-04T11:48:21.360Z,80
2023-03-04T11:51:46.509Z,80
2023-03-04T11:55:11.686Z,80
2023-03-04T11:58:36.790Z,80
2023-03-04T12:02:01.943Z,80
2023-03-04T12:05:27.084Z,80
2023-03-04T12:08:52.219Z,81
2023-03-04T12:12:17.416Z,81
2023-03-04T12:15:42.552Z,81
2023-03-04T12:19:07.651Z,81
2023-03-04T12:22:32.824Z,81
2023-03-04T12:25:57.985Z,82
2023-03-04T12:29:23.157Z,81
2023-03-04T12:32:48.283Z,80
2023-03-04T12:36:13.417Z,80
2023-03-04T12:39:38.569Z,80
2023-03-04T12:43:03.753Z,80
2023-03-04T12:46:28.995Z,80
2023-03-04T12:49:54.086Z,80
2023-03-04T12:53:19.255Z,80
2023-03-04T12:56:44.405Z,80
2023-03-04T13:00:09.579Z,80
2023-03-04T13:03:34.999Z,79
2023-03-04T13:06:59.986Z,79
2023-03-04T13:10:25.163Z,79
2023-03-04T13:13:50.355Z,79
2023-03-04T13:17:15.531Z,79
2023-03-04T13:20:40.768Z,79
2023-03-04T13:24:05.938Z,79
2023-03-04T13:27:31.139Z,80
2023-03-04T13:30:56.942Z,80
2023-03-04T13:34:21.494Z,80
2023-03-04T13:37:46.712Z,80
2023-03-04T13:41:11.847Z,80
2023-03-04T13:44:37.049Z,79
2023-03-04T13:48:02.212Z,80
2023-03-04T13:51:29.872Z,80
2023-03-04T13:54:52.658Z,81
2023-03-04T13:58:17.822Z,81
2023-03-04T14:01:43.023Z,81
2023-03-04T14:05:08.184Z,81
2023-03-04T14:08:33.356Z,80
2023-03-04T14:11:58.546Z,80
2023-03-04T14:15:23.691Z,81
2023-03-04T14:18:48.892Z,81
2023-03-04T14:22:14.049Z,82
2023-03-04T14:25:39.224Z,82
2023-03-04T14:29:04.430Z,82
2023-03-04T15:05:19.650Z,83
2023-03-04T15:08:36.847Z,83
2023-03-04T15:12:02.184Z,82
2023-03-04T15:15:27.422Z,83
2023-03-04T15:18:52.746Z,83
2023-03-04T15:22:17.932Z,81
2023-03-04T15:25:43.174Z,81
2023-03-04T15:29:08.286Z,81
2023-03-04T15:32:33.506Z,81
2023-03-04T15:35:58.720Z,81
2023-03-04T15:39:23.817Z,80
2023-03-04T15:42:49.011Z,79
2023-03-04T15:46:16.257Z,80
2023-03-04T15:49:39.390Z,81
2023-03-04T15:53:04.634Z,80
2023-03-04T15:56:29.845Z,81
2023-03-04T15:59:54.991Z,81
2023-03-04T16:03:20.112Z,80
2023-03-04T16:06:45.270Z,80
2023-03-04T16:10:11.121Z,80
2023-03-04T16:13:36.528Z,80
2023-03-04T16:17:01.685Z,80
2023-03-04T16:20:26.892Z,81
2023-03-04T16:23:52.192Z,80
2023-03-04T16:27:17.422Z,80
2023-03-04T16:30:42.634Z,80
2023-03-04T16:34:07.776Z,80
2023-03-04T16:37:32.968Z,81
2023-03-04T16:40:58.163Z,81
2023-03-04T16:44:23.389Z,81
2023-03-04T16:47:48.562Z,81
2023-03-04T16:51:13.784Z,81
2023-03-04T16:54:39.006Z,80
2023-03-04T16:58:04.208Z,81
2023-03-04T17:01:29.460Z,81
2023-03-04T17:04:54.674Z,81
2023-03-04T17:08:19.716Z,81
2023-03-04T17:11:44.954Z,81
2023-03-04T17:15:10.103Z,81
2023-03-04T17:18:35.258Z,81
2023-03-04T17:22:00.520Z,82
2023-03-04T17:25:25.738Z,82
2023-03-04T17:28:50.985Z,83
2023-03-04T17:32:16.293Z,83
2023-03-04T17:35:41.429Z,83
2023-03-04T17:39:06.682Z,83
2023-03-04T17:42:32.558Z,83
2023-03-04T17:45:57.750Z,82
2023-03-04T17:49:22.930Z,82
2023-03-04T17:52:48.086Z,81
2023-03-04T17:56:13.344Z,81
2023-03-04T17:59:38.496Z,81
2023-03-04T18:03:03.679Z,81
2023-03-04T18:06:28.861Z,82
2023-03-04T18:09:54.064Z,82
2023-03-04T18:13:19.311Z,82
2023-03-04T18:16:44.515Z,82
2023-03-04T18:20:09.689Z,82
2023-03-04T18:23:34.846Z,82
2023-03-04T18:27:00.144Z,82
2023-03-04T18:30:25.302Z,83
2023-03-04T18:33:50.526Z,82
2023-03-04T18:37:15.712Z,82
2023-03-04T18:40:40.892Z,82
2023-03-04T18:44:06.075Z,83
2023-03-04T18:47:31.268Z,83
2023-03-04T18:50:56.418Z,83
2023-03-04T18:54:21.598Z,83
2023-03-04T18:57:46.762Z,84
2023-03-04T19:01:12.035Z,84
2023-03-04T19:04:37.186Z,84
2023-03-04T19:08:02.318Z,84
2023-03-04T19:11:27.517Z,84
2023-03-04T19:14:52.694Z,85
2023-03-04T19:18:17.924Z,86
2023-03-04T19:21:43.140Z,86
2023-03-04T19:25:08.274Z,86
2023-03-04T19:28:33.481Z,86
2023-03-04T19:31:58.716Z,86
2023-03-04T19:35:23.919Z,86
2023-03-04T19:38:49.034Z,86
2023-03-04T19:42:14.198Z,86
2023-03-04T19:45:39.431Z,86
2023-03-04T19:49:04.563Z,86
2023-03-04T19:52:29.724Z,86
2023-03-04T19:55:54.928Z,86
2023-03-04T19:59:20.080Z,86
2023-03-04T20:02:45.282Z,86
2023-03-04T20:06:10.430Z,85
2023-03-04T20:09:35.598Z,86
2023-03-04T20:13:01.573Z,86
2023-03-04T20:16:26.728Z,86
2023-03-04T20:19:51.859Z,86
2023-03-04T20:23:17.028Z,86
2023-03-04T20:26:42.193Z,86
2023-03-04T20:30:07.378Z,86
2023-03-04T20:33:32.516Z,85
2023-03-04T20:36:59.958Z,86
2023-03-04T20:40:22.856Z,86
2023-03-04T20:43:48.048Z,86
2023-03-04T20:47:13.269Z,86
2023-03-04T20:50:38.392Z,86
2023-03-04T20:54:03.561Z,86
2023-03-04T20:57:28.752Z,86
2023-03-04T21:00:53.891Z,86
2023-03-04T21:04:19.172Z,86
2023-03-04T21:07:44.284Z,86
2023-03-04T21:11:09.419Z,86
2023-03-04T21:14:34.565Z,86
2023-03-04T21:17:59.732Z,86
2023-03-04T21:21:24.890Z,86
2023-03-04T21:24:50.050Z,87
2023-03-04T21:28:15.233Z,87
2023-03-04T21:31:40.463Z,87
2023-03-04T21:35:05.616Z,87
2023-03-04T21:38:30.809Z,87
2023-03-04T21:41:57.285Z,87
2023-03-04T21:45:21.141Z,88
2023-03-04T21:48:46.334Z,87
2023-03-04T21:52:11.543Z,87
2023-03-04T21:55:36.713Z,87
2023-03-04T21:59:01.869Z,86
2023-03-04T22:02:27.059Z,86
2023-03-04T22:05:52.180Z,86
2023-03-04T22:09:17.375Z,85
2023-03-04T22:12:42.592Z,85
2023-03-04T22:16:07.739Z,85
2023-03-04T22:19:32.859Z,85
2023-03-04T22:22:58.026Z,84
2023-03-04T22:26:23.226Z,85
2023-03-04T22:29:48.429Z,84
2023-03-04T22:33:13.571Z,85
2023-03-04T22:36:38.740Z,85
2023-03-04T22:40:03.891Z,85
2023-03-04T22:43:29.074Z,86
2023-03-04T22:46:54.248Z,85
2023-03-04T22:50:19.375Z,85
2023-03-04T22:53:44.527Z,84
2023-03-04T22:57:09.692Z,84
2023-03-04T23:00:34.871Z,84
2023-03-04T23:04:00.059Z,85
2023-03-04T23:07:25.173Z,85
2023-03-04T23:10:50.320Z,85
2023-03-04T23:14:15.501Z,85
2023-03-04T23:17:40.641Z,85
2023-03-04T23:21:05.834Z,85
2023-03-04T23:24:30.964Z,85
2023-03-04T23:27:56.114Z,85
2023-03-04T23:31:21.324Z,85
2023-03-04T23:34:46.493Z,85
2023-03-04T23:38:11.677Z,85
2023-03-04T23:41:36.863Z,86
2023-03-04T23:45:02.026Z,85
2023-03-04T23:48:27.196Z,85
2023-03-04T23:51:52.398Z,85
2023-03-04T23:55:17.640Z,84
2023-03-04T23:58:42.805Z,84
